Time;durP1;ratioP1;P1;durP2;ratioP2;P2;SDS_P1;SDS_P2;PMS_P1;PMS_P2;Temp;Humidity;BMP_temperature;BMP_pressure;BME280_temperature;BME280_humidity;BME280_pressure;Samples;Min_cycle;Max_cycle;Signal;HPM_P1;HPM_P2
2023/05/01 00:00:08;;;;;;;2.10;2.00;;;;;;;;;;5070902;28;20753;-86
2023/05/01 00:02:35;;;;;;;2.63;2.42;;;;;;;;;;5071021;28;20380;-85
2023/05/01 00:05:01;;;;;;;2.22;2.13;;;;;;;;;;5070691;28;20383;-86
2023/05/01 00:07:30;;;;;;;3.15;2.17;;;;;;;;;;5070078;28;20386;-86
2023/05/01 00:09:56;;;;;;;2.38;2.17;;;;;;;;;;5070920;28;20409;-84
2023/05/01 00:12:22;;;;;;;2.60;2.40;;;;;;;;;;5070756;28;20406;-85
2023/05/01 00:14:49;;;;;;;2.70;2.50;;;;;;;;;;5070178;28;20914;-85
2023/05/01 00:17:15;;;;;;;2.60;2.40;;;;;;;;;;5070427;28;20744;-85
2023/05/01 00:19:41;;;;;;;2.40;2.20;;;;;;;;;;5070830;28;20761;-84
2023/05/01 00:22:07;;;;;;;2.58;2.38;;;;;;;;;;5069539;28;20889;-85
2023/05/01 00:24:33;;;;;;;2.67;2.47;;;;;;;;;;5070663;28;20388;-85
2023/05/01 00:26:59;;;;;;;2.60;2.42;;;;;;;;;;5070567;28;20419;-86
2023/05/01 00:29:25;;;;;;;2.78;2.40;;;;;;;;;;5069524;28;20754;-85
2023/05/01 00:31:52;;;;;;;2.30;2.20;;;;;;;;;;5070662;28;20929;-86
2023/05/01 00:34:18;;;;;;;2.50;2.30;;;;;;;;;;5070682;28;20462;-85
2023/05/01 00:36:44;;;;;;;2.83;2.50;;;;;;;;;;5070588;28;20379;-85
2023/05/01 00:39:10;;;;;;;2.70;2.50;;;;;;;;;;5070651;28;20737;-85
2023/05/01 00:41:36;;;;;;;2.42;2.22;;;;;;;;;;5070683;28;20383;-86
2023/05/01 00:44:02;;;;;;;3.03;2.75;;;;;;;;;;5070647;28;20870;-85
2023/05/01 00:46:29;;;;;;;2.88;2.58;;;;;;;;;;5070560;28;20722;-86
2023/05/01 00:48:57;;;;;;;2.92;2.72;;;;;;;;;;5070578;28;20861;-84
2023/05/01 00:51:23;;;;;;;2.95;2.75;;;;;;;;;;5070539;28;20403;-86
2023/05/01 00:53:49;;;;;;;2.78;2.58;;;;;;;;;;5070505;28;20376;-85
2023/05/01 00:56:15;;;;;;;2.90;2.70;;;;;;;;;;5070353;28;20800;-85
2023/05/01 00:58:41;;;;;;;2.75;2.55;;;;;;;;;;5070332;28;20380;-85
2023/05/01 01:01:08;;;;;;;2.80;2.60;;;;;;;;;;5070304;28;20384;-86
2023/05/01 01:03:34;;;;;;;2.63;2.45;;;;;;;;;;5070480;28;20437;-85
2023/05/01 01:06:07;;;;;;;3.00;2.80;;;;;;;;;;5070427;28;20419;-85
2023/05/01 01:08:39;;;;;;;2.95;2.75;;;;;;;;;;5066027;28;20778;-86
2023/05/01 01:11:38;;;;;;;3.00;2.80;;;;;;;;;;5073775;28;20406;-85
2023/05/01 01:14:24;;;;;;;3.70;2.80;;;;;;;;;;5020654;28;20860;-85
2023/05/01 01:17:08;;;;;;;4.75;3.22;;;;;;;;;;5061278;28;20368;-86
2023/05/01 01:19:46;;;;;;;3.03;2.83;;;;;;;;;;5073736;28;20891;-85
2023/05/01 01:22:15;;;;;;;3.40;3.13;;;;;;;;;;5068072;28;20391;-86
2023/05/01 01:24:59;;;;;;;3.10;2.80;;;;;;;;;;5069890;28;20423;-85
2023/05/01 01:27:35;;;;;;;4.10;2.97;;;;;;;;;;5073548;28;20403;-86
2023/05/01 01:30:03;;;;;;;3.15;2.95;;;;;;;;;;5073556;28;20390;-84
2023/05/01 01:32:35;;;;;;;3.33;3.03;;;;;;;;;;5073519;28;20410;-85
2023/05/01 01:35:04;;;;;;;3.15;2.95;;;;;;;;;;5071016;28;20414;-86
2023/05/01 01:37:39;;;;;;;3.20;2.90;;;;;;;;;;5063253;28;20409;-85
2023/05/01 01:40:07;;;;;;;3.17;2.90;;;;;;;;;;5071985;28;20898;-85
2023/05/01 01:42:38;;;;;;;3.30;3.10;;;;;;;;;;5073477;28;20384;-86
2023/05/01 01:45:09;;;;;;;3.50;3.20;;;;;;;;;;5073202;28;20402;-86
2023/05/01 01:47:36;;;;;;;3.75;3.45;;;;;;;;;;5073067;28;20422;-85
2023/05/01 01:50:03;;;;;;;3.50;3.30;;;;;;;;;;5071710;28;20863;-85
2023/05/01 01:52:29;;;;;;;3.65;3.30;;;;;;;;;;5073026;28;20411;-85
2023/05/01 01:54:57;;;;;;;3.80;3.50;;;;;;;;;;5073049;28;20885;-85
2023/05/01 01:57:25;;;;;;;3.80;3.50;;;;;;;;;;5072981;28;20375;-85
2023/05/01 01:59:51;;;;;;;3.78;3.47;;;;;;;;;;5073008;28;20412;-86
2023/05/01 02:02:19;;;;;;;3.87;3.57;;;;;;;;;;5072796;28;20865;-85
2023/05/01 02:04:47;;;;;;;3.75;3.55;;;;;;;;;;5072950;28;20426;-85
2023/05/01 02:07:14;;;;;;;4.00;3.80;;;;;;;;;;5072590;28;20899;-85
2023/05/01 02:09:42;;;;;;;4.20;3.90;;;;;;;;;;5072631;28;20575;-86
2023/05/01 02:12:08;;;;;;;3.85;3.55;;;;;;;;;;5072037;28;20418;-85
2023/05/01 02:14:35;;;;;;;3.72;3.42;;;;;;;;;;5072267;28;20387;-85
2023/05/01 02:17:01;;;;;;;3.90;3.50;;;;;;;;;;5072560;28;20372;-85
2023/05/01 02:19:28;;;;;;;3.97;3.67;;;;;;;;;;5072166;28;20412;-84
2023/05/01 02:21:56;;;;;;;4.03;3.42;;;;;;;;;;5072660;28;20391;-85
2023/05/01 02:24:24;;;;;;;3.75;3.53;;;;;;;;;;5072564;28;20376;-85
2023/05/01 02:26:54;;;;;;;3.92;3.65;;;;;;;;;;5064023;28;20419;-85
2023/05/01 02:29:20;;;;;;;3.88;3.58;;;;;;;;;;5069444;28;21185;-86
2023/05/01 02:31:46;;;;;;;4.00;3.70;;;;;;;;;;5069967;28;20453;-85
2023/05/01 02:34:12;;;;;;;4.03;3.72;;;;;;;;;;5071061;28;20380;-85
2023/05/01 02:36:38;;;;;;;4.10;3.80;;;;;;;;;;5071652;28;20387;-86
2023/05/01 02:39:04;;;;;;;4.65;3.92;;;;;;;;;;5072073;28;20455;-85
2023/05/01 02:41:31;;;;;;;4.13;3.83;;;;;;;;;;5072041;28;20379;-85
2023/05/01 02:44:00;;;;;;;4.00;3.70;;;;;;;;;;5071467;28;20380;-84
2023/05/01 02:46:27;;;;;;;4.50;4.20;;;;;;;;;;5071586;28;20391;-85
2023/05/01 02:48:54;;;;;;;4.63;4.25;;;;;;;;;;5071909;28;20394;-86
2023/05/01 02:51:20;;;;;;;4.90;4.60;;;;;;;;;;5071847;28;20400;-86
2023/05/01 02:53:46;;;;;;;5.22;4.82;;;;;;;;;;5070912;28;20388;-85
2023/05/01 02:56:12;;;;;;;5.10;4.80;;;;;;;;;;5071688;28;20383;-85
2023/05/01 02:58:38;;;;;;;4.90;4.50;;;;;;;;;;5070390;28;20964;-86
2023/05/01 03:01:04;;;;;;;5.03;4.63;;;;;;;;;;5059655;28;20391;-86
2023/05/01 03:03:30;;;;;;;5.05;4.70;;;;;;;;;;5071355;28;20868;-86
2023/05/01 03:05:57;;;;;;;5.30;4.90;;;;;;;;;;5054892;28;20396;-86
2023/05/01 03:08:23;;;;;;;5.33;4.83;;;;;;;;;;5060262;28;20882;-86
2023/05/01 03:10:49;;;;;;;5.40;4.90;;;;;;;;;;5071170;28;20445;-85
2023/05/01 03:13:15;;;;;;;5.35;4.95;;;;;;;;;;5071222;28;20368;-87
2023/05/01 03:15:42;;;;;;;5.15;4.85;;;;;;;;;;5063458;28;20429;-86
2023/05/01 03:18:08;;;;;;;5.27;4.97;;;;;;;;;;5071312;28;20397;-85
2023/05/01 03:20:34;;;;;;;5.68;5.28;;;;;;;;;;5067982;28;20411;-85
2023/05/01 03:23:00;;;;;;;5.47;5.07;;;;;;;;;;5069601;28;20411;-85
2023/05/01 03:25:26;;;;;;;5.10;4.80;;;;;;;;;;5068411;28;20395;-85
2023/05/01 03:27:55;;;;;;;5.32;4.97;;;;;;;;;;5071007;28;20379;-85
2023/05/01 03:30:21;;;;;;;5.82;5.32;;;;;;;;;;5065992;28;20413;-85
2023/05/01 03:32:47;;;;;;;5.68;5.28;;;;;;;;;;5071005;28;20404;-85
2023/05/01 03:35:13;;;;;;;7.18;6.57;;;;;;;;;;5071031;28;20368;-85
2023/05/01 03:37:39;;;;;;;5.25;4.95;;;;;;;;;;5070972;28;20384;-85
2023/05/01 03:40:06;;;;;;;5.28;4.97;;;;;;;;;;5071033;28;20406;-85
2023/05/01 03:42:32;;;;;;;5.93;5.50;;;;;;;;;;5071052;28;20392;-85
2023/05/01 03:44:58;;;;;;;5.40;5.00;;;;;;;;;;5069803;28;20384;-85
2023/05/01 03:47:24;;;;;;;6.10;5.60;;;;;;;;;;5069595;28;20579;-85
2023/05/01 03:49:49;;;;;;;5.47;5.18;;;;;;;;;;5069591;28;20887;-85
2023/05/01 03:52:15;;;;;;;6.28;5.72;;;;;;;;;;5069559;28;20415;-85
2023/05/01 03:54:41;;;;;;;5.95;5.55;;;;;;;;;;5065711;28;20378;-86
2023/05/01 03:57:08;;;;;;;5.88;5.47;;;;;;;;;;5070842;28;20380;-85
2023/05/01 03:59:34;;;;;;;6.35;5.85;;;;;;;;;;5070386;28;20495;-84
2023/05/01 04:02:00;;;;;;;6.53;6.03;;;;;;;;;;5070919;28;20392;-84
2023/05/01 04:04:28;;;;;;;5.85;5.45;;;;;;;;;;5071097;28;20473;-85
2023/05/01 04:06:54;;;;;;;6.15;5.57;;;;;;;;;;5070886;28;20463;-85
2023/05/01 04:09:20;;;;;;;6.18;5.70;;;;;;;;;;5070880;28;20415;-85
2023/05/01 04:11:46;;;;;;;6.30;5.85;;;;;;;;;;5070063;28;20407;-85
2023/05/01 04:14:12;;;;;;;6.50;6.00;;;;;;;;;;5069524;28;20390;-85
2023/05/01 04:16:38;;;;;;;6.05;5.65;;;;;;;;;;5058232;28;20372;-85
2023/05/01 04:19:04;;;;;;;6.30;5.83;;;;;;;;;;5069916;28;20776;-85
2023/05/01 04:21:30;;;;;;;6.00;5.60;;;;;;;;;;5069107;28;20388;-85
2023/05/01 04:23:56;;;;;;;6.25;5.80;;;;;;;;;;5069192;28;20383;-85
2023/05/01 04:26:22;;;;;;;5.67;5.27;;;;;;;;;;5069435;28;20457;-84
2023/05/01 04:28:49;;;;;;;6.13;5.63;;;;;;;;;;5070275;28;20418;-85
2023/05/01 04:31:16;;;;;;;6.07;5.57;;;;;;;;;;5070565;28;20406;-85
2023/05/01 04:33:42;;;;;;;6.20;5.80;;;;;;;;;;5070560;28;20881;-85
2023/05/01 04:36:08;;;;;;;6.10;5.70;;;;;;;;;;5070612;28;20391;-84
2023/05/01 04:38:35;;;;;;;5.65;5.25;;;;;;;;;;5070223;28;20380;-85
2023/05/01 04:41:01;;;;;;;6.28;5.78;;;;;;;;;;5071844;28;20376;-83
2023/05/01 04:43:27;;;;;;;6.05;5.65;;;;;;;;;;5074274;28;20380;-84
2023/05/01 04:45:54;;;;;;;6.07;5.68;;;;;;;;;;5074092;28;20390;-84
2023/05/01 04:48:20;;;;;;;6.20;5.70;;;;;;;;;;5072907;28;20437;-84
2023/05/01 04:50:46;;;;;;;6.53;6.13;;;;;;;;;;5072906;28;20423;-83
2023/05/01 04:53:12;;;;;;;7.30;6.70;;;;;;;;;;5075593;28;20368;-83
2023/05/01 04:55:38;;;;;;;7.40;6.90;;;;;;;;;;5073784;28;20463;-84
2023/05/01 04:58:04;;;;;;;7.00;6.40;;;;;;;;;;5074017;28;20468;-83
2023/05/01 05:00:30;;;;;;;6.40;6.00;;;;;;;;;;5074411;28;20376;-84
2023/05/01 05:02:56;;;;;;;7.05;6.55;;;;;;;;;;5073780;28;20391;-84
2023/05/01 05:05:22;;;;;;;6.75;6.25;;;;;;;;;;5073715;28;20383;-83
2023/05/01 05:07:48;;;;;;;7.60;7.03;;;;;;;;;;5073628;28;20390;-84
2023/05/01 05:10:14;;;;;;;6.90;6.20;;;;;;;;;;5072852;28;20387;-84
2023/05/01 05:12:40;;;;;;;6.78;6.10;;;;;;;;;;5073411;28;20408;-84
2023/05/01 05:15:06;;;;;;;7.05;6.53;;;;;;;;;;5065575;28;20377;-84
2023/05/01 05:17:32;;;;;;;5.80;5.40;;;;;;;;;;5072873;28;20458;-84
2023/05/01 05:19:58;;;;;;;6.28;5.88;;;;;;;;;;5073328;28;20462;-84
2023/05/01 05:22:24;;;;;;;6.32;5.93;;;;;;;;;;5073750;28;20932;-84
2023/05/01 05:24:54;;;;;;;7.63;7.03;;;;;;;;;;5073602;28;20380;-84
2023/05/01 05:27:21;;;;;;;8.30;7.70;;;;;;;;;;5070040;28;20448;-84
2023/05/01 05:29:46;;;;;;;8.60;7.90;;;;;;;;;;5073403;28;20379;-84
2023/05/01 05:32:12;;;;;;;8.95;8.25;;;;;;;;;;5072132;28;20419;-84
2023/05/01 05:34:39;;;;;;;8.65;7.95;;;;;;;;;;5073035;28;20380;-84
2023/05/01 05:37:05;;;;;;;8.95;8.27;;;;;;;;;;5070603;28;20376;-85
2023/05/01 05:39:31;;;;;;;9.27;8.57;;;;;;;;;;5073302;28;20932;-83
2023/05/01 05:41:57;;;;;;;9.60;8.90;;;;;;;;;;5072176;28;20379;-85
2023/05/01 05:44:23;;;;;;;9.80;9.00;;;;;;;;;;5071779;28;20376;-85
2023/05/01 05:46:49;;;;;;;10.02;9.23;;;;;;;;;;5072566;28;20392;-86
2023/05/01 05:49:15;;;;;;;10.37;9.50;;;;;;;;;;5072582;28;20877;-86
2023/05/01 05:51:41;;;;;;;10.45;9.65;;;;;;;;;;5072742;28;20454;-85
2023/05/01 05:54:07;;;;;;;10.75;9.95;;;;;;;;;;5072231;28;20517;-85
2023/05/01 05:56:33;;;;;;;9.05;8.45;;;;;;;;;;5071102;28;20845;-85
2023/05/01 05:59:02;;;;;;;9.10;8.50;;;;;;;;;;5072793;28;20432;-84
2023/05/01 06:01:28;;;;;;;9.68;9.00;;;;;;;;;;5072085;28;20477;-86
2023/05/01 06:03:54;;;;;;;9.82;9.07;;;;;;;;;;5070506;28;20388;-84
2023/05/01 06:06:20;;;;;;;9.85;8.95;;;;;;;;;;5071583;28;20391;-84
2023/05/01 06:08:46;;;;;;;9.40;8.60;;;;;;;;;;5070501;28;20391;-84
2023/05/01 06:11:12;;;;;;;10.02;9.32;;;;;;;;;;5071953;28;20411;-85
2023/05/01 06:13:38;;;;;;;9.88;9.10;;;;;;;;;;5071844;28;20376;-84
2023/05/01 06:16:06;;;;;;;9.60;9.00;;;;;;;;;;5072212;28;20443;-85
2023/05/01 06:18:32;;;;;;;9.80;9.10;;;;;;;;;;5072365;28;20928;-85
2023/05/01 06:20:58;;;;;;;9.10;8.43;;;;;;;;;;5066328;28;20919;-84
2023/05/01 06:23:24;;;;;;;9.23;8.43;;;;;;;;;;5072471;28;20367;-82
2023/05/01 06:25:50;;;;;;;9.88;9.07;;;;;;;;;;5072222;28;20433;-83
2023/05/01 06:28:16;;;;;;;9.85;9.15;;;;;;;;;;5072200;28;20783;-86
2023/05/01 06:30:42;;;;;;;10.75;9.95;;;;;;;;;;5077533;28;20376;-86
2023/05/01 06:33:09;;;;;;;10.43;9.63;;;;;;;;;;5071857;28;20433;-86
2023/05/01 06:35:35;;;;;;;10.80;9.90;;;;;;;;;;5072389;28;20458;-86
2023/05/01 06:38:02;;;;;;;10.50;9.77;;;;;;;;;;5070950;28;20395;-86
2023/05/01 06:40:30;;;;;;;10.73;9.95;;;;;;;;;;5072270;28;20380;-87
2023/05/01 06:42:56;;;;;;;11.48;10.57;;;;;;;;;;5069961;28;20388;-85
2023/05/01 06:45:22;;;;;;;11.57;10.65;;;;;;;;;;5071591;28;20463;-85
2023/05/01 06:47:48;;;;;;;11.43;10.63;;;;;;;;;;5071202;28;20813;-85
2023/05/01 06:50:14;;;;;;;11.40;10.60;;;;;;;;;;5071629;28;20394;-85
2023/05/01 06:52:41;;;;;;;9.57;8.98;;;;;;;;;;5071407;28;20495;-84
2023/05/01 06:55:07;;;;;;;9.87;9.10;;;;;;;;;;5071396;28;20438;-82
2023/05/01 06:57:33;;;;;;;10.43;9.65;;;;;;;;;;5071765;28;20371;-84
2023/05/01 06:59:59;;;;;;;9.50;8.90;;;;;;;;;;5071779;28;20368;-83
2023/05/01 07:02:25;;;;;;;10.35;9.60;;;;;;;;;;5071975;28;20372;-82
2023/05/01 07:04:52;;;;;;;10.90;10.10;;;;;;;;;;5070867;28;20416;-83
2023/05/01 07:07:18;;;;;;;10.10;9.40;;;;;;;;;;5071639;28;20391;-86
2023/05/01 07:09:44;;;;;;;9.98;9.27;;;;;;;;;;5071608;28;20459;-87
2023/05/01 07:12:11;;;;;;;9.00;8.40;;;;;;;;;;5071528;28;20400;-88
2023/05/01 07:14:37;;;;;;;9.07;8.48;;;;;;;;;;5075402;22;20439;-79
2023/05/01 07:17:03;;;;;;;8.45;7.75;;;;;;;;;;5067104;28;20391;-79
2023/05/01 07:19:29;;;;;;;8.90;8.30;;;;;;;;;;5060645;28;20385;-79
2023/05/01 07:21:55;;;;;;;8.38;7.88;;;;;;;;;;5066482;28;20398;-78
2023/05/01 07:24:21;;;;;;;8.80;8.20;;;;;;;;;;5060261;28;20420;-79
2023/05/01 07:26:47;;;;;;;7.65;7.15;;;;;;;;;;5065059;28;20875;-78
2023/05/01 07:29:15;;;;;;;7.32;6.72;;;;;;;;;;5071280;28;20387;-80
2023/05/01 07:31:41;;;;;;;7.47;6.97;;;;;;;;;;5070026;28;20547;-79
2023/05/01 07:34:07;;;;;;;7.80;7.30;;;;;;;;;;5069674;28;20523;-79
2023/05/01 07:36:33;;;;;;;8.30;7.70;;;;;;;;;;5071261;28;20578;-79
2023/05/01 07:38:59;;;;;;;7.88;7.38;;;;;;;;;;5071384;28;20828;-79
2023/05/01 07:41:25;;;;;;;8.70;8.00;;;;;;;;;;5069934;28;20416;-79
2023/05/01 07:43:51;;;;;;;9.73;8.85;;;;;;;;;;5071276;28;20409;-79
2023/05/01 07:46:17;;;;;;;8.98;8.30;;;;;;;;;;5070642;28;20843;-79
2023/05/01 07:48:43;;;;;;;9.55;8.85;;;;;;;;;;5070811;28;20388;-79
2023/05/01 07:51:09;;;;;;;9.43;8.82;;;;;;;;;;5070527;28;20427;-79
2023/05/01 07:53:35;;;;;;;9.23;8.43;;;;;;;;;;5069789;28;20422;-79
2023/05/01 07:56:08;;;;;;;9.63;8.83;;;;;;;;;;5063958;28;20486;-79
2023/05/01 07:58:35;;;;;;;9.27;8.57;;;;;;;;;;5070880;28;20459;-80
2023/05/01 08:01:02;;;;;;;8.90;8.30;;;;;;;;;;5071326;28;20374;-80
2023/05/01 08:03:28;;;;;;;9.07;8.48;;;;;;;;;;5071064;28;20406;-81
2023/05/01 08:05:55;;;;;;;9.40;8.60;;;;;;;;;;5069228;28;20379;-79
2023/05/01 08:08:21;;;;;;;8.90;8.30;;;;;;;;;;5070707;28;20929;-79
2023/05/01 08:10:47;;;;;;;9.00;8.35;;;;;;;;;;5070969;28;20869;-79
2023/05/01 08:13:13;;;;;;;8.80;8.20;;;;;;;;;;5070798;28;20379;-79
2023/05/01 08:15:41;;;;;;;8.55;8.05;;;;;;;;;;5090893;28;20413;-79
2023/05/01 08:18:08;;;;;;;7.93;7.43;;;;;;;;;;5095194;28;20378;-79
2023/05/01 08:20:35;;;;;;;7.47;6.97;;;;;;;;;;5095109;28;20378;-79
2023/05/01 08:23:01;;;;;;;7.18;6.68;;;;;;;;;;5094337;28;20389;-79
2023/05/01 08:25:28;;;;;;;8.33;7.83;;;;;;;;;;5094715;28;20390;-79
2023/05/01 08:27:54;;;;;;;8.43;7.93;;;;;;;;;;5094064;28;20385;-79
2023/05/01 08:30:20;;;;;;;7.47;6.97;;;;;;;;;;5086645;28;20734;-80
2023/05/01 08:32:46;;;;;;;7.95;7.45;;;;;;;;;;5094111;28;20412;-79
2023/05/01 08:35:12;;;;;;;7.90;7.40;;;;;;;;;;5094407;28;20378;-80
2023/05/01 08:37:38;;;;;;;7.25;6.75;;;;;;;;;;5094844;28;20389;-79
2023/05/01 08:40:07;;;;;;;7.40;6.90;;;;;;;;;;5075634;28;20389;-79
2023/05/01 08:42:37;;;;;;;7.53;7.03;;;;;;;;;;5094684;28;20382;-79
2023/05/01 08:45:06;;;;;;;7.20;6.70;;;;;;;;;;5096652;28;20386;-79
2023/05/01 08:47:35;;;;;;;6.40;5.90;;;;;;;;;;5094549;28;20384;-80
2023/05/01 08:50:03;;;;;;;6.53;6.10;;;;;;;;;;5094545;28;20393;-79
2023/05/01 08:52:29;;;;;;;6.43;6.03;;;;;;;;;;5093259;28;20466;-79
2023/05/01 08:54:56;;;;;;;7.20;6.70;;;;;;;;;;5094366;28;20405;-80
2023/05/01 08:57:24;;;;;;;6.82;6.38;;;;;;;;;;5082886;28;20366;-79
2023/05/01 08:59:52;;;;;;;6.70;6.30;;;;;;;;;;5094680;28;20389;-78
2023/05/01 09:02:18;;;;;;;7.40;6.90;;;;;;;;;;5081548;28;20370;-78
2023/05/01 09:04:44;;;;;;;6.80;6.40;;;;;;;;;;5093727;28;20382;-78
2023/05/01 09:07:11;;;;;;;6.10;5.70;;;;;;;;;;5094517;28;20412;-78
2023/05/01 09:09:37;;;;;;;6.00;5.60;;;;;;;;;;5093679;28;20382;-79
2023/05/01 09:12:06;;;;;;;5.63;5.22;;;;;;;;;;5094230;28;20400;-78
2023/05/01 09:14:32;;;;;;;5.55;5.25;;;;;;;;;;5093827;28;20413;-79
2023/05/01 09:16:58;;;;;;;5.80;5.40;;;;;;;;;;5080016;28;20738;-78
2023/05/01 09:19:24;;;;;;;6.50;6.10;;;;;;;;;;5092634;28;20378;-79
2023/05/01 09:21:50;;;;;;;6.40;5.90;;;;;;;;;;5093806;28;20384;-79
2023/05/01 09:24:16;;;;;;;5.88;5.45;;;;;;;;;;5092971;28;20386;-80
2023/05/01 09:26:43;;;;;;;5.65;5.35;;;;;;;;;;5075394;28;20370;-79
2023/05/01 09:29:09;;;;;;;5.83;5.43;;;;;;;;;;5090838;28;20380;-80
2023/05/01 09:31:35;;;;;;;6.22;5.82;;;;;;;;;;5093909;28;20451;-79
2023/05/01 09:34:02;;;;;;;5.60;5.30;;;;;;;;;;5093851;28;20413;-79
2023/05/01 09:36:29;;;;;;;5.53;5.13;;;;;;;;;;5075088;28;20394;-79
2023/05/01 09:38:56;;;;;;;6.03;5.63;;;;;;;;;;5091631;28;20370;-79
2023/05/01 09:41:22;;;;;;;6.30;5.90;;;;;;;;;;5093595;28;20386;-79
2023/05/01 09:43:52;;;;;;;5.32;5.03;;;;;;;;;;5092730;28;20382;-79
2023/05/01 09:46:19;;;;;;;6.28;5.88;;;;;;;;;;5079571;28;20404;-79
2023/05/01 09:49:02;;;;;;;5.45;5.15;;;;;;;;;;5093598;28;20469;-79
2023/05/01 09:51:29;;;;;;;5.38;5.05;;;;;;;;;;5093989;28;20406;-79
2023/05/01 09:53:56;;;;;;;4.70;4.20;;;;;;;;;;5076010;28;20548;-81
2023/05/01 09:56:22;;;;;;;4.93;4.60;;;;;;;;;;5093335;28;20378;-79
2023/05/01 09:58:52;;;;;;;4.55;4.25;;;;;;;;;;5093557;28;20370;-80
2023/05/01 10:01:18;;;;;;;5.00;4.60;;;;;;;;;;5093634;28;20388;-81
2023/05/01 10:03:45;;;;;;;4.47;4.18;;;;;;;;;;5093074;28;20378;-80
2023/05/01 10:06:11;;;;;;;3.72;3.53;;;;;;;;;;5093454;28;20735;-79
2023/05/01 10:08:45;;;;;;;3.92;3.67;;;;;;;;;;5093324;28;20389;-79
2023/05/01 10:11:11;;;;;;;4.40;4.10;;;;;;;;;;5091015;28;20415;-78
2023/05/01 10:13:37;;;;;;;3.60;3.35;;;;;;;;;;5089076;28;20770;-79
2023/05/01 10:16:06;;;;;;;3.00;2.80;;;;;;;;;;5093110;28;20390;-78
2023/05/01 10:18:33;;;;;;;3.00;2.80;;;;;;;;;;5092184;28;20457;-78
2023/05/01 10:20:59;;;;;;;2.83;2.63;;;;;;;;;;5093237;28;20599;-79
2023/05/01 10:23:25;;;;;;;2.80;2.60;;;;;;;;;;5074911;28;20398;-79
2023/05/01 10:25:52;;;;;;;2.53;2.33;;;;;;;;;;5093057;28;20386;-79
2023/05/01 10:28:24;;;;;;;2.50;2.40;;;;;;;;;;5092871;28;20377;-79
2023/05/01 10:30:50;;;;;;;3.40;3.10;;;;;;;;;;5092536;28;20928;-78
2023/05/01 10:33:17;;;;;;;2.92;2.60;;;;;;;;;;5087031;28;20452;-79
2023/05/01 10:35:49;;;;;;;2.28;2.00;;;;;;;;;;5091810;28;20385;-80
2023/05/01 10:38:26;;;;;;;3.25;3.03;;;;;;;;;;5092598;28;20424;-78
2023/05/01 10:40:52;;;;;;;5.45;5.05;;;;;;;;;;5092344;28;20390;-80
2023/05/01 10:43:26;;;;;;;5.50;5.10;;;;;;;;;;5091837;28;20385;-80
2023/05/01 10:45:53;;;;;;;2.47;2.30;;;;;;;;;;5092543;28;20420;-78
2023/05/01 10:48:39;;;;;;;2.53;2.35;;;;;;;;;;5090189;28;20453;-80
2023/05/01 10:51:21;;;;;;;4.88;4.47;;;;;;;;;;5090397;28;20375;-81
2023/05/01 10:53:49;;;;;;;4.78;4.38;;;;;;;;;;5090684;28;20447;-81
2023/05/01 10:56:24;;;;;;;2.53;2.30;;;;;;;;;;5091000;28;20409;-80
2023/05/01 10:58:53;;;;;;;2.83;2.53;;;;;;;;;;5091187;28;20393;-80
2023/05/01 11:01:30;;;;;;;2.33;2.15;;;;;;;;;;5085595;28;20385;-80
2023/05/01 11:03:56;;;;;;;2.70;2.50;;;;;;;;;;5091851;28;20893;-80
2023/05/01 11:06:23;;;;;;;2.83;2.63;;;;;;;;;;5092924;28;20390;-80
2023/05/01 11:08:49;;;;;;;2.50;2.30;;;;;;;;;;5092111;28;20541;-80
2023/05/01 11:11:24;;;;;;;2.70;2.50;;;;;;;;;;5091982;28;20417;-80
2023/05/01 11:13:56;;;;;;;2.25;2.15;;;;;;;;;;5090984;28;20407;-78
2023/05/01 11:16:40;;;;;;;2.50;2.40;;;;;;;;;;5088818;28;20423;-80
2023/05/01 11:19:11;;;;;;;2.30;2.20;;;;;;;;;;5089498;28;20379;-79
2023/05/01 11:21:40;;;;;;;2.30;2.20;;;;;;;;;;5087779;28;20389;-80
2023/05/01 11:24:06;;;;;;;2.20;2.10;;;;;;;;;;5080394;28;20382;-78
2023/05/01 11:26:36;;;;;;;2.60;2.40;;;;;;;;;;5089077;28;20467;-78
2023/05/01 11:29:03;;;;;;;2.50;2.10;;;;;;;;;;5091050;28;20378;-78
2023/05/01 11:31:29;;;;;;;2.40;2.20;;;;;;;;;;5088078;28;20448;-78
2023/05/01 11:33:56;;;;;;;1.77;1.67;;;;;;;;;;5091692;28;20373;-78
2023/05/01 11:36:22;;;;;;;2.15;1.95;;;;;;;;;;5091831;28;20378;-78
2023/05/01 11:38:51;;;;;;;1.70;1.48;;;;;;;;;;5088550;28;20374;-78
2023/05/01 11:41:20;;;;;;;2.15;2.05;;;;;;;;;;5087530;28;20382;-78
2023/05/01 11:43:53;;;;;;;1.95;1.85;;;;;;;;;;5091423;28;20473;-78
2023/05/01 11:46:32;;;;;;;1.90;1.80;;;;;;;;;;5091477;28;20382;-78
2023/05/01 11:48:58;;;;;;;1.75;1.65;;;;;;;;;;5091401;28;20374;-78
2023/05/01 11:51:25;;;;;;;1.60;1.50;;;;;;;;;;5090693;28;20409;-78
2023/05/01 11:54:17;;;;;;;1.77;1.67;;;;;;;;;;5091496;28;20413;-78
2023/05/01 11:56:43;;;;;;;1.85;1.75;;;;;;;;;;5086043;28;20382;-79
2023/05/01 11:59:16;;;;;;;1.70;1.60;;;;;;;;;;5091400;28;20378;-78
2023/05/01 12:01:44;;;;;;;1.73;1.63;;;;;;;;;;5091334;28;20380;-78
2023/05/01 12:04:10;;;;;;;1.77;1.67;;;;;;;;;;5091325;28;20384;-78
2023/05/01 12:06:39;;;;;;;1.90;1.80;;;;;;;;;;5091566;28;20712;-78
2023/05/01 12:09:07;;;;;;;2.42;1.80;;;;;;;;;;5086503;28;20384;-78
2023/05/01 12:11:33;;;;;;;1.55;1.45;;;;;;;;;;5091235;28;20402;-78
2023/05/01 12:13:59;;;;;;;1.67;1.58;;;;;;;;;;5090923;28;20398;-78
2023/05/01 12:16:27;;;;;;;1.75;1.65;;;;;;;;;;5091292;28;20373;-78
2023/05/01 12:18:54;;;;;;;2.13;1.93;;;;;;;;;;5091092;28;20370;-78
2023/05/01 12:21:20;;;;;;;1.77;1.67;;;;;;;;;;5091108;28;20374;-78
2023/05/01 12:23:46;;;;;;;1.77;1.67;;;;;;;;;;5091048;28;20374;-78
2023/05/01 12:26:20;;;;;;;2.10;2.00;;;;;;;;;;5091245;28;20382;-78
2023/05/01 12:28:53;;;;;;;1.70;1.60;;;;;;;;;;5091023;28;20386;-78
2023/05/01 12:31:19;;;;;;;1.70;1.60;;;;;;;;;;5090835;28;20464;-79
2023/05/01 12:33:58;;;;;;;2.42;2.10;;;;;;;;;;5090996;28;20374;-79
2023/05/01 12:36:28;;;;;;;2.37;2.00;;;;;;;;;;5090945;28;20865;-78
2023/05/01 12:39:04;;;;;;;3.30;3.00;;;;;;;;;;5084257;28;20384;-78
2023/05/01 12:41:36;;;;;;;1.87;1.77;;;;;;;;;;5089028;28;20370;-78
2023/05/01 12:44:14;;;;;;;1.80;1.70;;;;;;;;;;5091010;28;20374;-78
2023/05/01 12:46:40;;;;;;;1.98;1.88;;;;;;;;;;5090949;28;20390;-78
2023/05/01 12:49:06;;;;;;;1.83;1.73;;;;;;;;;;5090873;28;20385;-78
2023/05/01 12:51:32;;;;;;;1.92;1.73;;;;;;;;;;5090869;28;20398;-78
2023/05/01 12:53:58;;;;;;;1.35;1.25;;;;;;;;;;5091068;28;20370;-78
2023/05/01 12:56:25;;;;;;;1.60;1.30;;;;;;;;;;5090842;28;20410;-78
2023/05/01 12:58:52;;;;;;;1.60;1.50;;;;;;;;;;5090980;28;20381;-78
2023/05/01 13:01:27;;;;;;;1.23;1.05;;;;;;;;;;5091166;28;20397;-78
2023/05/01 13:03:56;;;;;;;1.20;1.10;;;;;;;;;;5094789;28;20708;-78
2023/05/01 13:06:31;;;;;;;1.17;1.00;;;;;;;;;;5094699;28;20399;-79
2023/05/01 13:09:07;;;;;;;1.00;1.00;;;;;;;;;;5094493;28;20773;-79
2023/05/01 13:11:33;;;;;;;1.30;1.20;;;;;;;;;;5094388;28;20486;-78
2023/05/01 13:14:06;;;;;;;1.00;0.90;;;;;;;;;;5094071;28;20488;-78
2023/05/01 13:16:32;;;;;;;1.40;0.93;;;;;;;;;;5086674;28;20723;-78
2023/05/01 13:18:58;;;;;;;1.08;0.98;;;;;;;;;;5094282;28;20377;-79
2023/05/01 13:21:25;;;;;;;1.02;0.95;;;;;;;;;;5094503;28;20381;-78
2023/05/01 13:23:56;;;;;;;0.88;0.88;;;;;;;;;;5084172;28;20387;-79
2023/05/01 13:26:27;;;;;;;0.93;0.80;;;;;;;;;;5094276;28;20381;-78
2023/05/01 13:28:54;;;;;;;0.98;0.80;;;;;;;;;;5094093;28;20370;-78
2023/05/01 13:31:20;;;;;;;0.80;0.60;;;;;;;;;;5093818;28;20412;-79
2023/05/01 13:33:47;;;;;;;0.80;0.80;;;;;;;;;;5094571;28;20918;-79
2023/05/01 13:36:14;;;;;;;1.00;1.00;;;;;;;;;;5093934;28;20459;-78
2023/05/01 13:38:45;;;;;;;1.40;0.90;;;;;;;;;;5090837;28;20409;-78
2023/05/01 13:41:19;;;;;;;1.00;1.00;;;;;;;;;;5091958;28;20374;-78
2023/05/01 13:43:46;;;;;;;0.90;0.90;;;;;;;;;;5093815;28;20435;-78
2023/05/01 13:46:14;;;;;;;1.63;1.08;;;;;;;;;;5093849;28;20374;-78
2023/05/01 13:48:40;;;;;;;1.65;1.00;;;;;;;;;;5093962;28;20370;-79
2023/05/01 13:51:07;;;;;;;1.70;0.93;;;;;;;;;;5093649;28;20743;-79
2023/05/01 13:53:33;;;;;;;0.93;0.90;;;;;;;;;;5093403;28;20730;-79
2023/05/01 13:55:59;;;;;;;0.93;0.90;;;;;;;;;;5093605;28;20428;-78
2023/05/01 13:58:28;;;;;;;1.00;0.80;;;;;;;;;;5093346;28;20378;-78
2023/05/01 14:00:54;;;;;;;1.13;1.02;;;;;;;;;;5093449;28;20374;-78
2023/05/01 14:03:20;;;;;;;1.63;1.10;;;;;;;;;;5093295;28;20382;-78
2023/05/01 14:05:47;;;;;;;1.05;1.00;;;;;;;;;;5093412;28;20384;-79
2023/05/01 14:08:14;;;;;;;1.20;0.98;;;;;;;;;;5093548;28;20431;-78
2023/05/01 14:10:40;;;;;;;1.65;1.55;;;;;;;;;;5093224;28;20384;-78
2023/05/01 14:13:06;;;;;;;1.17;0.95;;;;;;;;;;5092798;28;20416;-79
2023/05/01 14:15:35;;;;;;;1.08;0.90;;;;;;;;;;5069129;28;20412;-78
2023/05/01 14:18:05;;;;;;;3.67;3.38;;;;;;;;;;5083905;28;20381;-79
2023/05/01 14:20:31;;;;;;;2.83;1.77;;;;;;;;;;5093063;28;20382;-78
2023/05/01 14:22:58;;;;;;;1.65;1.30;;;;;;;;;;5093239;28;20385;-78
2023/05/01 14:25:26;;;;;;;7.43;3.03;;;;;;;;;;5093031;28;20927;-80
2023/05/01 14:27:52;;;;;;;3.30;1.73;;;;;;;;;;5092502;28;20381;-80
2023/05/01 14:30:25;;;;;;;4.47;2.20;;;;;;;;;;5084704;28;20381;-80
2023/05/01 14:32:51;;;;;;;2.55;1.85;;;;;;;;;;5092756;28;20402;-81
2023/05/01 14:35:21;;;;;;;1.50;1.15;;;;;;;;;;5092844;28;20456;-79
2023/05/01 14:37:48;;;;;;;1.02;0.90;;;;;;;;;;5092655;28;20362;-79
2023/05/01 14:40:14;;;;;;;1.30;1.20;;;;;;;;;;5092738;28;20373;-79
2023/05/01 14:42:43;;;;;;;1.63;1.33;;;;;;;;;;5092680;28;20609;-78
2023/05/01 14:45:18;;;;;;;1.52;1.42;;;;;;;;;;5092359;28;20377;-79